Terminal Aerodrome Forecast
Issued by NWS

Home | Current Version | Previous Version | Text Only | Print | Product List | Glossary On
Versions: 1 2 3 4 5 6 7 8 9 10 11 12 13 14 15 16 17 18 19 20 21 22 23 24 25 26 27 28 29
000
FTUS45 KGGW 240500
TAFOLF
TAF
KOLF 240530Z 2406/2506 11011G21KT P6SM FEW070 BKN150
     FM240800 11011G21KT P6SM VCTS BKN060CB
     FM241200 08008KT P6SM SCT150
     FM241800 31010KT P6SM VCSH FEW060 SCT250
     FM250000 30015G25KT P6SM BKN250=

USA.gov is the U.S. government's official web portal to all federal, state and local government web resources and services.